createdAt,value
2022-12-04T00:00:49.680Z,22.09
2022-12-04T00:01:49.609Z,22.07
2022-12-04T00:02:51.713Z,22.10
2022-12-04T00:03:49.592Z,22.09
2022-12-04T00:04:49.665Z,22.12
2022-12-04T00:05:50.483Z,22.14
2022-12-04T00:06:53.990Z,22.15
2022-12-04T00:07:51.173Z,22.15
2022-12-04T00:08:49.500Z,22.17
2022-12-04T00:09:49.516Z,22.18
2022-12-04T00:10:49.495Z,22.18
2022-12-04T00:11:49.465Z,22.18
2022-12-04T00:12:50.253Z,22.18
2022-12-04T00:13:52.536Z,22.21
2022-12-04T00:15:23.921Z,22.20
2022-12-04T00:15:49.592Z,22.14
2022-12-04T00:16:50.479Z,22.14
2022-12-04T00:17:49.431Z,22.15
2022-12-04T00:18:49.428Z,22.17
2022-12-04T00:19:49.353Z,22.18
2022-12-04T00:20:49.388Z,22.15
2022-12-04T00:21:50.065Z,22.12
2022-12-04T00:22:50.252Z,22.15
2022-12-04T00:23:49.355Z,22.14
2022-12-04T00:24:50.125Z,22.14
2022-12-04T00:25:49.277Z,22.14
2022-12-04T00:26:49.325Z,22.15
2022-12-04T00:27:49.308Z,22.15
2022-12-04T00:28:49.258Z,22.20
2022-12-04T00:29:49.298Z,22.20
2022-12-04T00:30:49.264Z,22.18
2022-12-04T00:31:52.682Z,22.17
2022-12-04T00:32:49.253Z,22.17
2022-12-04T00:33:49.207Z,22.17
2022-12-04T00:34:49.245Z,22.21
2022-12-04T00:35:49.950Z,22.25
2022-12-04T00:36:49.210Z,22.27
2022-12-04T00:37:49.193Z,22.30
2022-12-04T00:38:49.164Z,22.31
2022-12-04T00:39:49.936Z,22.31
2022-12-04T00:40:49.889Z,22.28
2022-12-04T00:41:51.443Z,22.25
2022-12-04T00:42:49.127Z,22.21
2022-12-04T00:43:49.108Z,22.18
2022-12-04T00:44:51.254Z,22.18
2022-12-04T00:45:50.347Z,22.20
2022-12-04T00:46:55.003Z,22.21
2022-12-04T00:47:49.859Z,22.22
2022-12-04T00:48:49.037Z,22.24
2022-12-04T00:49:49.065Z,22.22
2022-12-04T00:50:50.952Z,22.20
2022-12-04T00:51:50.267Z,22.17
2022-12-04T00:52:48.997Z,22.21
2022-12-04T00:53:50.042Z,22.21
2022-12-04T00:54:48.977Z,22.22
2022-12-04T00:55:58.656Z,22.25
2022-12-04T00:56:57.025Z,22.22
2022-12-04T00:58:00.026Z,22.20
2022-12-04T00:58:48.917Z,22.21
2022-12-04T00:59:49.884Z,22.22
2022-12-04T01:00:48.991Z,22.24
2022-12-04T01:01:48.953Z,22.22
2022-12-04T01:02:48.908Z,22.21
2022-12-04T01:03:51.388Z,22.21
2022-12-04T01:04:48.888Z,22.20
2022-12-04T01:05:49.622Z,22.21
2022-12-04T01:06:48.864Z,22.21
2022-12-04T01:07:48.897Z,22.22
2022-12-04T01:08:48.831Z,22.22
2022-12-04T01:09:49.572Z,22.24
2022-12-04T01:10:48.807Z,22.25
2022-12-04T01:11:49.759Z,22.25
2022-12-04T01:12:48.812Z,22.27
2022-12-04T01:13:48.827Z,22.24
2022-12-04T01:14:48.758Z,22.24
2022-12-04T01:15:48.750Z,22.21
2022-12-04T01:16:52.181Z,22.18
2022-12-04T01:17:49.412Z,22.17
2022-12-04T01:18:48.722Z,22.17
2022-12-04T01:19:48.766Z,22.17
2022-12-04T01:20:48.667Z,22.25
2022-12-04T01:21:48.666Z,22.27
2022-12-04T01:22:49.461Z,22.30
2022-12-04T01:23:51.416Z,22.31
2022-12-04T01:24:48.665Z,22.31
2022-12-04T01:25:49.423Z,22.31
2022-12-04T01:26:56.573Z,22.31
2022-12-04T01:27:51.047Z,22.33
2022-12-04T01:28:49.342Z,22.28
2022-12-04T01:29:50.267Z,22.31
2022-12-04T01:30:48.580Z,22.30
2022-12-04T01:31:48.637Z,22.25
2022-12-04T01:32:48.535Z,22.22
2022-12-04T01:33:54.229Z,22.18
2022-12-04T01:34:49.626Z,22.18
2022-12-04T01:35:49.454Z,22.14
2022-12-04T01:36:49.282Z,22.10
2022-12-04T01:37:49.169Z,22.10
2022-12-04T01:38:49.421Z,22.07
2022-12-04T01:39:48.539Z,22.09
2022-12-04T01:40:48.465Z,22.10
2022-12-04T01:41:48.528Z,22.09
2022-12-04T01:42:48.436Z,22.09
2022-12-04T01:43:48.426Z,22.10
2022-12-04T01:44:48.959Z,22.10
2022-12-04T01:45:49.246Z,22.12
2022-12-04T01:46:48.358Z,22.14
2022-12-04T01:47:48.415Z,22.14
2022-12-04T01:48:50.417Z,22.18
2022-12-04T01:49:48.385Z,22.20
2022-12-04T01:50:49.049Z,22.21
2022-12-04T01:51:48.374Z,22.21
2022-12-04T01:52:48.311Z,22.21
2022-12-04T01:53:48.375Z,22.18
2022-12-04T01:54:48.911Z,22.15
2022-12-04T01:55:51.516Z,22.12
2022-12-04T01:56:48.302Z,22.09
2022-12-04T01:57:48.382Z,22.07
2022-12-04T01:58:48.905Z,22.09
2022-12-04T01:59:48.982Z,22.10
2022-12-04T02:00:51.707Z,22.10
2022-12-04T02:01:48.273Z,22.15
2022-12-04T02:02:50.530Z,22.18
2022-12-04T02:03:48.281Z,22.21
2022-12-04T02:04:48.166Z,22.24
2022-12-04T02:05:48.169Z,22.21
2022-12-04T02:06:49.745Z,22.18
2022-12-04T02:07:50.541Z,22.17
2022-12-04T02:08:51.086Z,22.12
2022-12-04T02:09:48.862Z,22.06
2022-12-04T02:10:48.928Z,22.06
2022-12-04T02:11:49.179Z,22.05
2022-12-04T02:12:48.106Z,22.05
2022-12-04T02:13:48.136Z,22.06
2022-12-04T02:14:48.857Z,22.05
2022-12-04T02:15:48.100Z,22.03
2022-12-04T02:16:48.950Z,22.03
2022-12-04T02:17:48.334Z,22.03
2022-12-04T02:18:47.992Z,22.02
2022-12-04T02:19:48.029Z,22.03
2022-12-04T02:20:49.185Z,22.02
2022-12-04T02:21:51.610Z,22.03
2022-12-04T02:22:48.016Z,22.06
2022-12-04T02:23:47.965Z,22.06
2022-12-04T02:24:50.348Z,22.06
2022-12-04T02:25:47.960Z,22.07
2022-12-04T02:26:49.111Z,22.06
2022-12-04T02:27:47.964Z,22.05
2022-12-04T02:28:48.623Z,22.02
2022-12-04T02:29:48.944Z,22.00
2022-12-04T02:30:48.691Z,22.00
2022-12-04T02:31:48.470Z,22.02
2022-12-04T02:32:47.834Z,22.03
2022-12-04T02:33:48.604Z,22.05
2022-12-04T02:34:47.855Z,22.03
2022-12-04T02:35:47.894Z,22.03
2022-12-04T02:36:47.885Z,22.03
2022-12-04T02:37:48.570Z,21.99
2022-12-04T02:38:48.443Z,22.00
2022-12-04T02:39:48.449Z,21.98
2022-12-04T02:40:47.797Z,21.99
2022-12-04T02:41:47.820Z,21.99
2022-12-04T02:42:47.733Z,21.99
2022-12-04T02:43:47.756Z,21.99
2022-12-04T02:44:48.409Z,21.98
2022-12-04T02:45:47.767Z,21.98
2022-12-04T02:46:47.717Z,21.98
2022-12-04T02:47:48.483Z,21.96
2022-12-04T02:48:48.378Z,21.96
2022-12-04T02:49:47.673Z,21.92
2022-12-04T02:50:48.440Z,21.94
2022-12-04T02:51:47.696Z,21.94
2022-12-04T02:52:47.639Z,21.92
2022-12-04T02:53:47.650Z,21.94
2022-12-04T02:54:50.570Z,21.94
2022-12-04T02:55:49.751Z,21.92
2022-12-04T02:56:49.073Z,21.92
2022-12-04T02:57:47.635Z,21.91
2022-12-04T02:58:47.564Z,21.94
2022-12-04T02:59:48.275Z,21.94
2022-12-04T03:00:47.504Z,21.94
2022-12-04T03:01:48.231Z,21.96
2022-12-04T03:02:47.627Z,21.98
2022-12-04T03:03:47.528Z,21.99
2022-12-04T03:04:48.251Z,21.99
2022-12-04T03:05:47.511Z,21.96
2022-12-04T03:06:47.478Z,21.98
2022-12-04T03:07:48.232Z,21.98
2022-12-04T03:08:48.223Z,21.98
2022-12-04T03:09:47.501Z,21.98
2022-12-04T03:10:48.285Z,21.99
2022-12-04T03:11:48.461Z,21.98
2022-12-04T03:12:48.120Z,21.98
2022-12-04T03:13:48.166Z,21.98
2022-12-04T03:14:47.380Z,21.98
2022-12-04T03:15:56.179Z,21.99
2022-12-04T03:16:55.471Z,21.99
2022-12-04T03:17:56.918Z,22.00
2022-12-04T03:19:05.681Z,22.02
2022-12-04T03:19:47.337Z,22.06
2022-12-04T03:54:05.612Z,22.05
2022-12-04T03:54:11.556Z,21.80
2022-12-04T04:01:05.535Z,21.86
2022-12-04T04:02:06.644Z,21.84
2022-12-04T04:03:05.912Z,21.88
2022-12-04T04:04:07.551Z,21.90
2022-12-04T04:05:15.211Z,21.88
2022-12-04T04:06:14.966Z,21.84
2022-12-04T04:07:05.814Z,21.84
2022-12-04T04:08:05.826Z,21.80
2022-12-04T04:09:05.786Z,21.79
2022-12-04T04:10:05.704Z,21.77
2022-12-04T04:11:06.462Z,21.75
2022-12-04T04:12:05.746Z,21.74
2022-12-04T04:13:06.429Z,21.74
2022-12-04T04:14:05.668Z,21.75
2022-12-04T04:15:05.703Z,21.75
2022-12-04T04:16:05.835Z,21.74
2022-12-04T04:17:05.666Z,21.74
2022-12-04T04:18:06.408Z,21.74
2022-12-04T04:19:05.688Z,21.71
2022-12-04T04:20:05.633Z,21.72
2022-12-04T04:21:05.684Z,21.69
2022-12-04T04:22:06.524Z,21.71
2022-12-04T04:23:05.609Z,21.72
2022-12-04T04:24:05.610Z,21.75
2022-12-04T04:25:05.726Z,21.72
2022-12-04T04:26:05.531Z,21.74
2022-12-04T04:27:05.596Z,21.74
2022-12-04T04:28:05.577Z,21.74
2022-12-04T04:29:05.553Z,21.75
2022-12-04T04:30:05.564Z,21.75
2022-12-04T04:31:05.581Z,21.77
2022-12-04T04:32:05.508Z,21.75
2022-12-04T04:33:05.490Z,21.69
2022-12-04T04:34:05.448Z,21.68
2022-12-04T04:35:08.738Z,21.67
2022-12-04T04:36:05.467Z,21.65
2022-12-04T04:37:05.469Z,21.62
2022-12-04T04:38:06.428Z,21.62
2022-12-04T04:39:05.410Z,21.61
2022-12-04T04:40:05.395Z,21.61
2022-12-04T04:41:05.391Z,21.59
2022-12-04T04:42:06.133Z,21.59
2022-12-04T04:43:05.967Z,21.61
2022-12-04T04:44:06.106Z,21.61
2022-12-04T04:45:05.358Z,21.59
2022-12-04T04:46:05.382Z,21.58
2022-12-04T04:47:05.346Z,21.58
2022-12-04T04:48:06.259Z,21.56
2022-12-04T04:49:05.335Z,21.56
2022-12-04T04:50:05.283Z,21.58
2022-12-04T04:51:05.287Z,21.54
2022-12-04T04:52:05.292Z,21.56
2022-12-04T04:53:05.330Z,21.54
2022-12-04T04:54:05.289Z,21.54
2022-12-04T04:55:05.265Z,21.54
2022-12-04T04:56:05.962Z,21.54
2022-12-04T04:57:08.461Z,21.53
2022-12-04T04:58:05.248Z,21.54
2022-12-04T04:59:05.229Z,21.56
2022-12-04T05:00:06.103Z,21.56
2022-12-04T05:01:08.362Z,21.58
2022-12-04T05:02:05.210Z,21.58
2022-12-04T05:03:05.310Z,21.59
2022-12-04T05:04:05.852Z,21.61
2022-12-04T05:05:05.126Z,21.59
2022-12-04T05:06:05.132Z,21.59
2022-12-04T05:07:05.135Z,21.59
2022-12-04T05:08:05.153Z,21.61
2022-12-04T05:09:05.122Z,21.59
2022-12-04T05:10:05.602Z,21.61
2022-12-04T05:11:06.249Z,21.61
2022-12-04T05:12:06.944Z,21.61
2022-12-04T05:13:05.792Z,21.58
2022-12-04T05:14:05.060Z,21.59
2022-12-04T05:15:05.967Z,21.59
2022-12-04T05:16:05.039Z,21.59
2022-12-04T05:17:09.244Z,21.61
2022-12-04T05:18:05.010Z,21.62
2022-12-04T05:19:04.998Z,21.62
2022-12-04T05:20:06.001Z,21.65
2022-12-04T05:21:05.704Z,21.61
2022-12-04T05:22:07.595Z,21.61
2022-12-04T05:23:04.998Z,21.62
2022-12-04T05:24:04.947Z,21.62
2022-12-04T05:25:05.472Z,21.61
2022-12-04T05:26:04.853Z,21.61
2022-12-04T05:27:05.491Z,21.61
2022-12-04T05:28:04.861Z,21.62
2022-12-04T05:29:04.830Z,21.62
2022-12-04T05:30:04.838Z,21.61
2022-12-04T05:31:04.924Z,21.61
2022-12-04T05:32:05.521Z,21.59
2022-12-04T05:33:04.854Z,21.58
2022-12-04T05:34:04.788Z,21.59
2022-12-04T05:35:10.607Z,21.59
2022-12-04T05:36:04.786Z,21.61
2022-12-04T05:37:04.800Z,21.59
2022-12-04T05:38:17.493Z,21.56
2022-12-04T05:39:15.594Z,21.58
2022-12-04T05:40:04.739Z,21.58
2022-12-04T05:41:04.762Z,21.58
2022-12-04T05:42:04.685Z,21.61
2022-12-04T05:43:04.702Z,21.62
2022-12-04T05:44:05.825Z,21.61
2022-12-04T05:45:04.728Z,21.62
2022-12-04T05:46:06.201Z,21.64
2022-12-04T05:47:04.708Z,21.65
2022-12-04T05:48:04.644Z,21.69
2022-12-04T05:49:04.642Z,21.71
2022-12-04T05:50:04.643Z,21.71
2022-12-04T05:51:04.649Z,21.68
2022-12-04T05:52:04.623Z,21.68
2022-12-04T05:53:04.598Z,21.64
2022-12-04T05:54:04.591Z,21.64
2022-12-04T05:55:04.593Z,21.64
2022-12-04T05:56:04.585Z,21.64
2022-12-04T05:57:06.681Z,21.64
2022-12-04T05:58:04.508Z,21.64
2022-12-04T05:59:05.482Z,21.67
2022-12-04T06:00:04.490Z,21.65
2022-12-04T06:01:05.252Z,21.64
2022-12-04T06:02:04.548Z,21.64
2022-12-04T06:03:04.507Z,21.65
2022-12-04T06:04:04.456Z,21.67
2022-12-04T06:05:04.521Z,21.65
2022-12-04T06:06:04.474Z,21.61
2022-12-04T06:07:04.459Z,21.58
2022-12-04T06:08:04.482Z,21.52
2022-12-04T06:09:04.440Z,21.47
2022-12-04T06:10:04.373Z,21.46
2022-12-04T06:11:04.409Z,21.40
2022-12-04T06:12:07.075Z,21.40
2022-12-04T06:13:04.356Z,21.38
2022-12-04T06:14:04.360Z,21.37
2022-12-04T06:15:04.396Z,21.35
2022-12-04T06:16:05.176Z,21.38
2022-12-04T06:17:05.776Z,21.40
2022-12-04T06:18:04.319Z,21.40
2022-12-04T06:19:05.258Z,21.42
2022-12-04T06:20:10.901Z,21.44
2022-12-04T06:21:04.972Z,21.46
2022-12-04T06:22:04.307Z,21.49
2022-12-04T06:23:05.412Z,21.52
2022-12-04T06:24:04.268Z,21.52
2022-12-04T06:25:04.982Z,21.53
2022-12-04T06:26:07.097Z,21.56
2022-12-04T06:27:26.776Z,21.58
2022-12-04T06:28:04.249Z,21.58
2022-12-04T06:29:04.184Z,21.58
2022-12-04T06:30:04.198Z,21.59
2022-12-04T06:31:04.155Z,21.64
2022-12-04T06:32:04.280Z,21.65
2022-12-04T06:33:04.129Z,21.68
2022-12-04T06:34:04.187Z,21.69
2022-12-04T06:35:04.125Z,21.71
2022-12-04T06:36:04.135Z,21.74
2022-12-04T06:37:04.095Z,21.71
2022-12-04T06:38:04.070Z,21.69
2022-12-04T06:39:04.893Z,21.69
2022-12-04T06:40:06.569Z,21.71
2022-12-04T06:41:11.716Z,21.67
2022-12-04T06:42:04.026Z,21.68
2022-12-04T06:43:12.686Z,21.68
2022-12-04T06:44:04.038Z,21.69
2022-12-04T06:45:11.748Z,21.69
2022-12-04T06:46:04.117Z,21.72
2022-12-04T06:47:03.977Z,21.72
2022-12-04T06:48:04.522Z,21.71
2022-12-04T06:49:03.947Z,21.71
2022-12-04T06:50:05.720Z,21.71
2022-12-04T06:51:03.919Z,21.68
2022-12-04T06:52:03.977Z,21.65
2022-12-04T06:53:08.360Z,21.62
2022-12-04T06:54:04.551Z,21.64
2022-12-04T06:55:03.927Z,21.64
2022-12-04T06:56:03.909Z,21.61
2022-12-04T06:57:05.039Z,21.62
2022-12-04T06:58:03.883Z,21.65
2022-12-04T06:59:03.842Z,21.65
2022-12-04T07:00:03.846Z,21.67
2022-12-04T07:01:03.902Z,21.69
2022-12-04T07:02:03.930Z,21.71
2022-12-04T07:03:03.789Z,21.74
2022-12-04T07:04:04.773Z,21.74
2022-12-04T07:05:03.823Z,21.75
2022-12-04T07:06:03.778Z,21.77
2022-12-04T07:07:03.753Z,21.79
2022-12-04T07:08:03.847Z,21.79
2022-12-04T07:09:04.430Z,21.84
2022-12-04T07:10:04.718Z,21.83
2022-12-04T07:11:03.761Z,21.80
2022-12-04T07:12:05.652Z,21.79
2022-12-04T07:13:04.208Z,21.80
2022-12-04T07:14:04.620Z,21.80
2022-12-04T07:15:06.224Z,21.79
2022-12-04T07:16:04.318Z,21.77
2022-12-04T07:17:03.672Z,21.77
2022-12-04T07:18:04.228Z,21.79
2022-12-04T07:19:04.753Z,21.77
2022-12-04T07:20:03.744Z,21.75
2022-12-04T07:21:03.602Z,21.75
2022-12-04T07:22:03.607Z,21.79
2022-12-04T07:23:07.493Z,21.79
2022-12-04T07:24:03.577Z,21.79
2022-12-04T07:25:03.913Z,21.80
2022-12-04T07:26:03.583Z,21.83
2022-12-04T07:27:04.214Z,21.83
2022-12-04T07:28:04.925Z,21.84
2022-12-04T07:29:03.830Z,21.84
2022-12-04T07:30:03.856Z,21.86
2022-12-04T07:31:03.520Z,21.86
2022-12-04T07:32:03.755Z,21.88
2022-12-04T07:33:05.568Z,21.88
2022-12-04T07:34:03.466Z,21.88
2022-12-04T07:35:04.222Z,21.90
2022-12-04T07:36:03.541Z,21.88
2022-12-04T07:37:03.501Z,21.90
2022-12-04T07:38:04.082Z,21.90
2022-12-04T07:39:03.457Z,21.88
2022-12-04T07:40:04.352Z,21.90
2022-12-04T07:41:03.483Z,21.91
2022-12-04T07:42:03.495Z,21.92
2022-12-04T07:43:04.153Z,21.91
2022-12-04T07:44:03.488Z,21.91
2022-12-04T07:45:03.490Z,21.94
2022-12-04T07:46:03.740Z,21.99
2022-12-04T07:47:03.375Z,22.02
2022-12-04T07:48:05.244Z,22.00
2022-12-04T07:49:03.321Z,22.00
2022-12-04T07:50:03.342Z,22.00
2022-12-04T07:51:03.302Z,21.98
2022-12-04T07:52:03.449Z,21.92
2022-12-04T07:53:03.443Z,21.90
2022-12-04T07:54:04.559Z,21.91
2022-12-04T07:55:03.368Z,21.94
2022-12-04T07:56:03.379Z,21.96
2022-12-04T07:57:05.215Z,21.99
2022-12-04T07:58:03.303Z,22.03
2022-12-04T07:59:03.902Z,22.06
2022-12-04T08:00:03.157Z,22.12
2022-12-04T08:01:11.112Z,22.15
2022-12-04T08:02:03.159Z,22.15
2022-12-04T08:03:04.076Z,22.18
2022-12-04T08:04:03.292Z,22.18
2022-12-04T08:05:03.529Z,22.15
2022-12-04T08:06:03.236Z,22.18
2022-12-04T08:07:03.084Z,22.18
2022-12-04T08:08:03.090Z,22.20
2022-12-04T08:09:09.233Z,22.22
2022-12-04T08:10:03.055Z,22.21
2022-12-04T08:11:03.064Z,22.22
2022-12-04T08:12:03.041Z,22.22
2022-12-04T08:13:03.831Z,22.24
2022-12-04T08:23:53.016Z,21.98
2022-12-04T08:25:11.052Z,21.92
2022-12-04T08:26:04.030Z,21.90
2022-12-04T08:26:53.938Z,21.92
2022-12-04T08:27:53.942Z,21.96
2022-12-04T08:28:53.932Z,22.00
2022-12-04T08:29:55.248Z,22.00
2022-12-04T08:30:53.957Z,22.05
2022-12-04T08:31:53.900Z,22.05
2022-12-04T08:32:53.866Z,22.09
2022-12-04T08:33:53.886Z,22.10
2022-12-04T08:34:56.101Z,22.10
2022-12-04T08:35:53.887Z,22.10
2022-12-04T08:36:55.477Z,22.09
2022-12-04T08:37:53.825Z,22.06
2022-12-04T08:38:53.798Z,22.05
2022-12-04T08:39:54.120Z,22.10
2022-12-04T08:40:53.780Z,22.09
2022-12-04T08:41:57.098Z,22.07
2022-12-04T08:42:54.347Z,22.05
2022-12-04T08:43:53.740Z,22.02
2022-12-04T08:44:53.765Z,22.03
2022-12-04T08:45:53.786Z,22.03
2022-12-04T08:46:53.906Z,22.03
2022-12-04T08:47:53.713Z,22.06
2022-12-04T08:48:53.706Z,22.07
2022-12-04T08:49:54.128Z,22.06
2022-12-04T08:50:53.661Z,22.07
2022-12-04T08:51:53.709Z,22.07
2022-12-04T08:52:53.693Z,22.06
2022-12-04T08:53:53.651Z,22.06
2022-12-04T08:54:53.626Z,22.06
2022-12-04T08:55:53.611Z,22.06
2022-12-04T08:56:55.134Z,22.07
2022-12-04T08:57:53.600Z,22.09
2022-12-04T08:58:54.386Z,22.12
2022-12-04T08:59:54.109Z,22.12
2022-12-04T09:00:53.537Z,22.15
2022-12-04T09:01:53.650Z,22.15
2022-12-04T09:02:53.541Z,22.18
2022-12-04T09:03:53.565Z,22.20
2022-12-04T09:04:54.671Z,22.27
2022-12-04T09:05:53.506Z,22.28
2022-12-04T09:07:02.884Z,22.25
2022-12-04T09:08:02.306Z,22.22
2022-12-04T09:08:54.353Z,22.21
2022-12-04T09:09:54.410Z,22.20
2022-12-04T09:10:53.473Z,22.18
2022-12-04T09:11:53.465Z,22.20
2022-12-04T09:12:55.539Z,22.25
2022-12-04T09:13:53.438Z,22.28
2022-12-04T09:14:55.761Z,22.33
2022-12-04T09:15:54.167Z,22.33
2022-12-04T09:16:54.278Z,22.33
2022-12-04T09:17:55.309Z,22.35
2022-12-04T09:18:53.340Z,22.37
2022-12-04T09:19:59.275Z,22.36
2022-12-04T09:23:24.662Z,22.36
2022-12-04T09:24:30.371Z,22.35
2022-12-04T09:25:25.629Z,22.35
2022-12-04T09:26:27.774Z,22.37
2022-12-04T09:27:26.484Z,22.36
2022-12-04T09:28:25.649Z,22.35
2022-12-04T09:29:25.609Z,22.37
2022-12-04T09:30:25.604Z,22.39
2022-12-04T09:31:48.441Z,22.46
2022-12-04T09:32:25.553Z,22.51
2022-12-04T09:33:25.594Z,22.54
2022-12-04T09:34:25.574Z,22.55
2022-12-04T09:35:25.543Z,22.57
2022-12-04T09:36:27.225Z,22.61
2022-12-04T09:37:25.580Z,22.65
2022-12-04T09:38:25.484Z,22.72
2022-12-04T09:39:25.520Z,22.75
2022-12-04T09:40:25.783Z,22.83
2022-12-04T09:41:25.489Z,22.88
2022-12-04T09:42:26.384Z,22.91
2022-12-04T09:43:25.479Z,22.86
2022-12-04T09:44:28.978Z,22.91
2022-12-04T09:45:26.208Z,22.95
2022-12-04T09:46:25.448Z,23.00
2022-12-04T09:47:25.418Z,22.98
2022-12-04T09:48:26.282Z,23.01
2022-12-04T09:49:26.854Z,22.98
2022-12-04T09:50:25.452Z,22.95
2022-12-04T09:51:25.454Z,23.00
2022-12-04T09:52:25.372Z,23.00
2022-12-04T09:53:26.264Z,23.04
2022-12-04T09:54:25.338Z,23.07
2022-12-04T09:55:25.315Z,23.10
2022-12-04T09:56:25.295Z,23.16
2022-12-04T09:57:25.354Z,23.20
2022-12-04T09:58:28.636Z,23.23
2022-12-04T09:59:25.801Z,23.25
2022-12-04T10:00:25.279Z,23.27
2022-12-04T10:01:25.247Z,23.27
2022-12-04T10:02:25.367Z,23.31
2022-12-04T10:03:28.368Z,23.28
2022-12-04T10:04:25.294Z,23.27
2022-12-04T10:05:25.947Z,23.25
2022-12-04T10:06:25.187Z,23.28
2022-12-04T10:07:25.176Z,23.23
2022-12-04T10:08:26.100Z,23.28
2022-12-04T10:09:25.133Z,23.32
2022-12-04T10:10:25.129Z,23.31
2022-12-04T10:11:30.697Z,23.32
2022-12-04T10:12:26.086Z,23.25
2022-12-04T10:13:25.295Z,23.25
2022-12-04T10:14:25.100Z,23.25
2022-12-04T10:15:25.078Z,23.22
2022-12-04T10:16:25.079Z,23.23
2022-12-04T10:17:32.369Z,23.27
2022-12-04T10:18:25.061Z,23.32
2022-12-04T10:19:25.076Z,23.32
2022-12-04T10:20:25.028Z,23.31
2022-12-04T10:21:25.054Z,23.25
2022-12-04T10:22:25.036Z,23.23
2022-12-04T10:23:26.801Z,23.25
2022-12-04T10:24:25.821Z,23.31
2022-12-04T10:25:27.421Z,23.36
2022-12-04T10:26:24.928Z,23.39
2022-12-04T10:27:25.670Z,23.40
2022-12-04T10:28:32.443Z,23.43
2022-12-04T10:29:24.944Z,23.47
2022-12-04T10:30:24.883Z,23.51
2022-12-04T10:31:25.995Z,23.53
2022-12-04T10:32:24.891Z,23.54
2022-12-04T10:33:24.907Z,23.57
2022-12-04T10:34:24.918Z,23.63
2022-12-04T10:35:24.884Z,23.68
2022-12-04T10:36:24.816Z,23.73
2022-12-04T10:37:24.867Z,23.79
2022-12-04T10:38:25.682Z,23.84
2022-12-04T10:39:24.813Z,23.88
2022-12-04T10:40:24.817Z,23.93
2022-12-04T10:41:24.826Z,23.94
2022-12-04T10:42:27.835Z,23.87
2022-12-04T10:43:24.799Z,23.83
2022-12-04T10:44:24.762Z,23.83
2022-12-04T10:45:25.317Z,23.87
2022-12-04T10:46:25.768Z,23.90
2022-12-04T10:47:24.761Z,23.91
2022-12-04T10:48:24.717Z,23.95
2022-12-04T10:49:24.715Z,23.97
2022-12-04T10:50:24.648Z,23.98
2022-12-04T10:51:25.335Z,24.03
2022-12-04T10:52:24.708Z,24.06
2022-12-04T10:53:24.707Z,24.10
2022-12-04T10:54:24.639Z,24.15
2022-12-04T10:55:25.497Z,24.18
2022-12-04T10:56:24.603Z,24.18
2022-12-04T10:57:25.538Z,24.16
2022-12-04T10:58:25.337Z,24.25
2022-12-04T10:59:25.489Z,24.27
2022-12-04T11:00:24.564Z,24.25
2022-12-04T11:01:28.612Z,24.22
2022-12-04T11:02:25.291Z,24.24
2022-12-04T11:03:24.683Z,24.31
2022-12-04T11:04:25.486Z,24.24
2022-12-04T11:05:24.547Z,24.20
2022-12-04T11:06:24.467Z,24.20
2022-12-04T11:07:24.520Z,24.18
2022-12-04T11:08:24.675Z,24.22
2022-12-04T11:09:24.458Z,24.22
2022-12-04T11:10:25.357Z,24.24
2022-12-04T11:11:24.504Z,24.25
2022-12-04T11:12:24.475Z,24.32
2022-12-04T11:13:24.471Z,24.40
2022-12-04T11:14:24.431Z,24.22
2022-12-04T11:15:24.424Z,24.06
2022-12-04T11:16:26.878Z,24.02
2022-12-04T11:17:26.141Z,24.08
2022-12-04T11:18:24.383Z,24.16
2022-12-04T11:19:25.642Z,24.27
2022-12-04T11:20:24.348Z,24.37
2022-12-04T11:21:24.381Z,24.39
2022-12-04T11:22:25.692Z,24.35
2022-12-04T11:23:24.386Z,24.32
2022-12-04T11:24:24.458Z,24.37
2022-12-04T11:25:32.432Z,24.43
2022-12-04T11:26:32.243Z,24.43
2022-12-04T11:27:25.226Z,24.49
2022-12-04T11:28:41.136Z,24.61
2022-12-04T11:29:25.445Z,24.69
2022-12-04T11:30:24.264Z,24.90
2022-12-04T11:31:24.364Z,24.99
2022-12-04T11:32:24.238Z,25.13
2022-12-04T11:33:24.240Z,25.23
2022-12-04T11:34:24.221Z,25.23
2022-12-04T11:35:24.169Z,25.28
2022-12-04T11:36:33.856Z,25.33
2022-12-04T11:37:31.385Z,25.36
2022-12-04T11:38:32.962Z,25.36
2022-12-04T11:39:31.744Z,25.39
2022-12-04T11:40:31.960Z,25.45
2022-12-04T11:41:35.523Z,25.50
2022-12-04T11:42:32.164Z,25.50
2022-12-04T11:43:32.261Z,25.54
2022-12-04T11:44:31.202Z,25.58
2022-12-04T11:45:33.734Z,25.51
2022-12-04T11:46:32.186Z,25.38
2022-12-04T11:47:33.731Z,25.40
2022-12-04T11:48:32.166Z,25.42
2022-12-04T11:49:33.539Z,25.40
2022-12-04T11:50:33.353Z,25.42
2022-12-04T11:51:32.257Z,25.50
2022-12-04T11:52:32.618Z,25.46
2022-12-04T11:53:34.858Z,25.47
2022-12-04T11:54:33.105Z,25.47
2022-12-04T11:55:33.755Z,25.50
2022-12-04T11:56:33.119Z,25.47
2022-12-04T11:57:23.965Z,25.46
2022-12-04T11:58:39.555Z,25.43
2022-12-04T11:59:23.916Z,25.46
2022-12-04T12:00:24.828Z,25.45
2022-12-04T12:01:37.358Z,25.46
2022-12-04T12:02:35.801Z,25.50
2022-12-04T12:03:31.177Z,25.52
2022-12-04T12:04:32.008Z,25.52
2022-12-04T12:05:24.577Z,25.62
2022-12-04T12:06:23.879Z,25.67
2022-12-04T12:07:24.427Z,25.65
2022-12-04T12:08:23.790Z,25.72
2022-12-04T12:09:25.038Z,25.73
2022-12-04T12:10:23.764Z,25.79
2022-12-04T12:11:23.799Z,25.92
2022-12-04T12:12:23.814Z,25.99
2022-12-04T12:13:23.810Z,26.05
2022-12-04T12:14:26.282Z,25.99
2022-12-04T12:15:24.345Z,25.97
2022-12-04T12:16:23.831Z,25.85
2022-12-04T12:17:24.346Z,25.83
2022-12-04T12:18:24.647Z,25.76
2022-12-04T12:19:23.756Z,25.76
2022-12-04T12:20:23.679Z,25.72
2022-12-04T12:21:23.875Z,25.67
2022-12-04T12:22:24.364Z,25.73
2022-12-04T12:23:23.688Z,25.79
2022-12-04T12:24:23.646Z,25.75
2022-12-04T12:25:23.692Z,25.76
2022-12-04T12:26:23.643Z,25.79
2022-12-04T12:27:24.529Z,25.85
2022-12-04T12:28:23.621Z,25.92
2022-12-04T12:29:25.372Z,26.05
2022-12-04T12:30:26.649Z,26.18
2022-12-04T12:31:23.919Z,26.17
2022-12-04T12:32:24.367Z,26.10
2022-12-04T12:33:23.562Z,25.94
2022-12-04T12:34:24.994Z,25.87
2022-12-04T12:35:25.281Z,25.87
2022-12-04T12:36:29.657Z,25.83
2022-12-04T12:37:24.277Z,25.90
2022-12-04T12:38:23.489Z,25.91
2022-12-04T12:39:23.510Z,25.98
2022-12-04T12:40:24.179Z,25.97
2022-12-04T12:41:24.421Z,25.97
2022-12-04T12:42:23.561Z,25.98
2022-12-04T12:43:23.576Z,26.06
2022-12-04T12:44:23.451Z,26.15
2022-12-04T12:45:23.438Z,26.26
2022-12-04T12:46:24.110Z,26.33
2022-12-04T12:47:24.035Z,26.29
2022-12-04T12:48:24.014Z,26.32
2022-12-04T12:49:23.348Z,26.26
2022-12-04T12:50:37.203Z,26.25
2022-12-04T12:51:30.943Z,26.18
2022-12-04T12:54:08.332Z,26.06
2022-12-04T12:54:58.298Z,26.12
2022-12-04T12:55:35.643Z,26.15
2022-12-04T12:56:38.265Z,26.21
2022-12-04T12:57:36.273Z,26.28
2022-12-04T12:58:35.605Z,26.20
2022-12-04T12:59:36.375Z,26.12
2022-12-04T13:00:46.106Z,26.15
2022-12-04T13:01:35.666Z,26.21
2022-12-04T13:02:35.623Z,26.20
2022-12-04T13:03:37.722Z,26.13
2022-12-04T13:04:36.465Z,26.09
2022-12-04T13:05:35.496Z,26.06
2022-12-04T13:06:35.980Z,26.07
2022-12-04T13:07:36.227Z,26.07
2022-12-04T13:08:35.501Z,26.10
2022-12-04T13:09:35.473Z,26.17
2022-12-04T13:10:35.441Z,26.25
2022-12-04T13:11:35.484Z,26.30
2022-12-04T13:12:35.565Z,26.25
2022-12-04T13:13:35.452Z,26.20
2022-12-04T13:14:35.972Z,26.25
2022-12-04T13:15:35.439Z,26.35
2022-12-04T13:16:43.241Z,26.44
2022-12-04T13:18:06.009Z,26.54
2022-12-04T13:18:35.384Z,26.60
2022-12-04T13:19:36.055Z,26.62
2022-12-04T13:20:36.019Z,26.51
2022-12-04T13:21:35.360Z,26.43
2022-12-04T13:22:35.378Z,26.32
2022-12-04T13:23:35.342Z,26.29
2022-12-04T13:24:36.176Z,26.29
2022-12-04T13:25:37.153Z,26.20
2022-12-04T13:26:36.055Z,26.15
2022-12-04T13:27:36.010Z,26.18
2022-12-04T13:28:35.391Z,26.21
2022-12-04T13:29:35.252Z,26.25
2022-12-04T13:30:35.212Z,26.20
2022-12-04T13:31:35.271Z,26.17
2022-12-04T13:32:35.864Z,26.17
2022-12-04T13:33:35.204Z,26.23
2022-12-04T13:34:39.413Z,26.23
2022-12-04T13:35:35.902Z,26.23
2022-12-04T13:36:35.176Z,26.15
2022-12-04T13:37:35.831Z,26.09
2022-12-04T13:38:35.154Z,26.09
2022-12-04T13:39:35.171Z,26.12
2022-12-04T13:40:35.803Z,26.18
2022-12-04T13:41:35.131Z,26.28
2022-12-04T13:42:35.720Z,26.37
2022-12-04T13:43:35.246Z,26.47
2022-12-04T13:44:37.204Z,26.55